Huvudsida
METAR-TAF:

METAR-TAF

Flygplatser :

Wake Island, USA

latitud: 19-17N, longitud: 166-39E, höjd: 4 m

Aktuellt väderrapport

Denna rapport gjordes för 43 minuter sedan, klockan 02:18 UTC
Vind 5 kt från sydost
Temperatur 31°C
Fuktighet 59%
Tryck 1013 hPa
Sikt 10 km eller mer
Spridda moln på en höjd av 2700 ft
Spridda moln på en höjd av 31000 ft
Brutna moln på en höjd av 35000 ft

METAR: PWAK 200218Z AUTO 13005KT 9999 SCT027 SCT310 BKN350 31/22 A2990 RMK AO2 SLP131

Tid: 15:01 (03:01 UTC)

Väderprognos

Denna rapport gjordes för 5 timmar och 1 minuter sedan, klockan 22:00 UTC
Prognos gäller från 19 kl. 22 UTC till 21 kl. 04 UTC
Vind 9 kt från ost
Sikt 10 km eller mer
Få moln på en höjd av 2600 ft

TAF: PWAK 192200Z 1922/2104 10009KT 9999 FEW026 QNH2987INS TX31/2001Z TN25/2018Z

Aktuella väderrapporter och prognoser från 4000 flygplatser (METAR- och TAF-rapporter).

De tillgängliga stationerna syns som gula och röda prickar på kartan.

För musen över prickarna för att se namnen på stationerna.

Klicka sedan för att få väderrapporter och prognoser.

För att ändra kartan: Klicka på de gröna knapparna med ett svart kors på för att zooma in; den gröna knappen med ett streck på för att zooma ut; eller på de gröna pilarna för angränsande kartor.


METAR-TAF: